createdAt,value
2023-01-30T00:00:37.350Z,3.18
2023-01-30T00:03:03.823Z,3.14
2023-01-30T00:05:30.284Z,3.05
2023-01-30T00:07:56.703Z,3.06
2023-01-30T00:10:25.800Z,3.02
2023-01-30T00:12:52.482Z,3.03
2023-01-30T00:15:18.875Z,2.98
2023-01-30T00:17:45.239Z,3.03
2023-01-30T00:20:13.639Z,3.05
2023-01-30T00:22:49.321Z,3.10
2023-01-30T00:25:22.313Z,3.09
2023-01-30T00:27:48.702Z,3.15
2023-01-30T00:30:15.276Z,3.18
2023-01-30T00:32:41.670Z,3.19
2023-01-30T00:35:08.220Z,3.18
2023-01-30T00:37:34.751Z,3.28
2023-01-30T00:40:01.161Z,3.25
2023-01-30T00:42:46.076Z,3.27
2023-01-30T00:45:31.485Z,3.29
2023-01-30T00:47:59.927Z,3.31
2023-01-30T00:50:42.215Z,3.39
2023-01-30T00:53:12.878Z,3.46
2023-01-30T00:55:40.459Z,3.47
2023-01-30T00:58:07.325Z,3.50
2023-01-30T01:00:33.862Z,3.56
2023-01-30T01:03:00.604Z,3.63
2023-01-30T01:05:28.251Z,3.59
2023-01-30T01:07:55.567Z,3.63
2023-01-30T01:10:23.489Z,3.66
2023-01-30T01:12:52.265Z,3.67
2023-01-30T01:15:20.081Z,3.70
2023-01-30T01:17:48.880Z,3.59
2023-01-30T01:20:16.357Z,3.56
2023-01-30T01:22:42.841Z,3.60
2023-01-30T01:25:10.583Z,3.58
2023-01-30T01:27:38.681Z,3.60
2023-01-30T01:30:06.177Z,3.61
2023-01-30T01:32:32.928Z,3.60
2023-01-30T01:34:59.327Z,3.65
2023-01-30T01:37:25.864Z,3.73
2023-01-30T01:40:10.687Z,3.68
2023-01-30T01:42:38.766Z,3.70
2023-01-30T01:45:11.586Z,3.69
2023-01-30T01:47:41.558Z,3.75
2023-01-30T01:50:15.089Z,3.71
2023-01-30T01:52:43.735Z,3.71
2023-01-30T01:55:11.659Z,3.65
2023-01-30T01:57:43.973Z,3.65
2023-01-30T02:00:12.292Z,3.68
2023-01-30T02:02:50.968Z,3.75
2023-01-30T02:05:19.160Z,3.75
2023-01-30T02:07:45.681Z,3.77
2023-01-30T02:10:17.714Z,3.87
2023-01-30T02:12:45.403Z,3.88
2023-01-30T02:15:11.913Z,3.86
2023-01-30T02:17:39.262Z,3.87
2023-01-30T02:20:32.064Z,3.89
2023-01-30T02:23:21.667Z,3.90
2023-01-30T02:26:01.116Z,3.92
2023-01-30T02:28:59.157Z,4.01
2023-01-30T02:31:49.545Z,4.09
2023-01-30T02:34:35.928Z,4.11
2023-01-30T02:37:31.332Z,4.14
2023-01-30T02:40:15.527Z,4.19
2023-01-30T02:43:00.632Z,4.16
2023-01-30T02:45:41.781Z,4.19
2023-01-30T02:48:16.713Z,4.21
2023-01-30T02:50:53.864Z,4.26
2023-01-30T02:53:20.811Z,4.25
2023-01-30T02:55:47.402Z,4.25
2023-01-30T02:58:16.314Z,4.32
2023-01-30T03:01:30.989Z,4.35
2023-01-30T03:04:00.381Z,4.38
2023-01-30T03:06:42.488Z,4.40
2023-01-30T03:09:18.231Z,4.43
2023-01-30T03:11:53.864Z,4.47
2023-01-30T03:14:26.655Z,4.46
2023-01-30T03:16:56.893Z,4.43
2023-01-30T03:19:23.326Z,4.50
2023-01-30T03:21:49.804Z,4.58
2023-01-30T03:24:17.698Z,4.54
2023-01-30T03:26:58.825Z,4.55
2023-01-30T03:29:26.096Z,4.60
2023-01-30T03:31:52.603Z,4.62
2023-01-30T03:34:19.084Z,4.65
2023-01-30T03:36:47.653Z,4.62
2023-01-30T03:39:15.438Z,4.57
2023-01-30T03:41:42.482Z,4.57
2023-01-30T03:44:09.222Z,4.56
2023-01-30T03:46:35.606Z,4.59
2023-01-30T03:49:02.053Z,4.59
2023-01-30T03:51:28.496Z,4.62
2023-01-30T03:53:55.588Z,4.63
2023-01-30T03:56:22.252Z,4.59
2023-01-30T03:58:48.664Z,4.59
2023-01-30T04:01:18.323Z,4.61
2023-01-30T04:03:44.806Z,4.61
2023-01-30T04:06:11.256Z,4.60
2023-01-30T04:08:37.736Z,4.63
2023-01-30T04:11:05.479Z,4.61
2023-01-30T04:13:31.984Z,4.60
2023-01-30T04:16:26.853Z,4.61
2023-01-30T04:19:18.875Z,4.59
2023-01-30T04:21:45.648Z,4.62
2023-01-30T04:24:12.197Z,4.61
2023-01-30T04:26:38.714Z,4.62
2023-01-30T04:29:05.520Z,4.63
2023-01-30T04:31:33.392Z,4.59
2023-01-30T04:34:12.513Z,4.62
2023-01-30T04:36:39.153Z,4.63
2023-01-30T04:39:05.539Z,4.62
2023-01-30T04:41:32.663Z,4.61
2023-01-30T04:44:00.804Z,4.61
2023-01-30T04:46:36.101Z,4.62
2023-01-30T04:49:02.975Z,4.65
2023-01-30T04:51:29.620Z,4.67
2023-01-30T04:53:57.609Z,4.67
2023-01-30T04:56:23.975Z,4.68
2023-01-30T04:58:50.481Z,4.72
2023-01-30T05:01:29.457Z,4.72
2023-01-30T05:03:56.127Z,4.66
2023-01-30T05:06:23.026Z,4.72
2023-01-30T05:08:51.000Z,4.71
2023-01-30T05:11:18.230Z,4.73
2023-01-30T05:13:45.104Z,4.78
2023-01-30T05:16:12.500Z,4.86
2023-01-30T05:18:38.936Z,4.86
2023-01-30T05:21:14.940Z,4.86
2023-01-30T05:23:41.482Z,4.83
2023-01-30T05:26:08.714Z,4.84
2023-01-30T05:28:35.646Z,4.88
2023-01-30T05:31:10.691Z,4.86
2023-01-30T05:33:37.969Z,4.89
2023-01-30T05:36:05.099Z,4.88
2023-01-30T05:38:31.525Z,4.90
2023-01-30T05:41:02.778Z,4.91
2023-01-30T05:43:29.559Z,4.94
2023-01-30T05:45:58.052Z,4.96
2023-01-30T05:48:25.689Z,4.94
2023-01-30T05:50:53.840Z,4.99
2023-01-30T05:53:21.727Z,4.99
2023-01-30T05:56:02.441Z,5.04
2023-01-30T05:58:30.067Z,5.05
2023-01-30T06:01:04.911Z,5.09
2023-01-30T06:03:31.705Z,5.16
2023-01-30T06:05:58.514Z,5.15
2023-01-30T06:08:25.023Z,5.17
2023-01-30T06:10:51.457Z,5.20
2023-01-30T06:13:17.871Z,5.23
2023-01-30T06:15:44.323Z,5.34
2023-01-30T06:18:10.833Z,5.40
2023-01-30T06:20:37.203Z,5.49
2023-01-30T06:23:03.654Z,5.52
2023-01-30T06:25:30.180Z,5.57
2023-01-30T06:27:56.543Z,5.62
2023-01-30T06:30:22.944Z,5.67
2023-01-30T06:32:52.514Z,5.71
2023-01-30T06:35:19.588Z,5.72
2023-01-30T06:37:46.328Z,5.72
2023-01-30T06:40:13.189Z,5.72
2023-01-30T06:42:44.331Z,5.71
2023-01-30T06:45:11.231Z,5.69
2023-01-30T06:47:45.694Z,5.72
2023-01-30T06:50:12.460Z,5.71
2023-01-30T06:52:42.859Z,5.75
2023-01-30T06:55:11.214Z,5.75
2023-01-30T06:57:37.703Z,5.74
2023-01-30T07:00:11.875Z,5.79
2023-01-30T07:02:38.257Z,5.82
2023-01-30T07:05:06.698Z,5.89
2023-01-30T07:07:34.202Z,5.87
2023-01-30T07:10:07.868Z,5.85
2023-01-30T07:12:36.090Z,5.94
2023-01-30T07:15:03.586Z,5.93
2023-01-30T07:17:29.979Z,5.87
2023-01-30T07:19:56.334Z,5.94
2023-01-30T07:22:22.730Z,5.98
2023-01-30T07:24:49.099Z,6.00
2023-01-30T07:27:15.569Z,6.01
2023-01-30T07:29:41.949Z,6.00
2023-01-30T07:32:16.723Z,6.02
2023-01-30T07:34:43.083Z,6.04
2023-01-30T07:37:09.449Z,6.06
2023-01-30T07:39:36.116Z,6.03
2023-01-30T07:42:03.006Z,5.97
2023-01-30T07:44:29.368Z,6.02
2023-01-30T07:46:55.902Z,6.02
2023-01-30T07:49:22.508Z,5.96
2023-01-30T07:51:49.139Z,5.91
2023-01-30T07:54:16.509Z,5.87
2023-01-30T07:56:42.875Z,5.95
2023-01-30T07:59:11.205Z,5.93
2023-01-30T08:01:37.974Z,5.97
2023-01-30T08:04:04.384Z,5.93
2023-01-30T08:06:31.032Z,5.95
2023-01-30T08:08:57.518Z,6.01
2023-01-30T08:11:23.902Z,6.06
2023-01-30T08:13:50.329Z,6.03
2023-01-30T08:16:16.737Z,6.01
2023-01-30T08:18:43.206Z,6.02
2023-01-30T08:21:10.041Z,6.03
2023-01-30T08:23:36.393Z,6.00
2023-01-30T08:26:04.536Z,6.04
2023-01-30T08:28:31.308Z,5.97
2023-01-30T08:30:58.203Z,6.00
2023-01-30T08:33:25.088Z,6.02
2023-01-30T08:35:51.534Z,6.03
2023-01-30T08:38:18.523Z,6.02
2023-01-30T08:40:44.863Z,6.03
2023-01-30T08:43:11.560Z,6.00
2023-01-30T08:45:37.946Z,6.02
2023-01-30T08:48:06.241Z,6.02
2023-01-30T08:50:34.020Z,6.01
2023-01-30T08:53:09.012Z,5.97
2023-01-30T08:55:35.899Z,5.97
2023-01-30T08:58:02.478Z,6.02
2023-01-30T09:00:29.500Z,6.03
2023-01-30T09:02:56.601Z,6.02
2023-01-30T09:05:23.562Z,6.02
2023-01-30T09:07:50.808Z,6.06
2023-01-30T09:10:18.168Z,6.05
2023-01-30T09:12:44.842Z,6.05
2023-01-30T09:15:11.375Z,6.03
2023-01-30T09:17:38.376Z,6.03
2023-01-30T09:20:10.399Z,6.02
2023-01-30T09:22:37.292Z,6.01
2023-01-30T09:25:04.873Z,6.03
2023-01-30T09:27:31.305Z,6.03
2023-01-30T09:29:57.946Z,6.02
2023-01-30T09:32:24.399Z,6.08
2023-01-30T09:34:50.772Z,6.11
2023-01-30T09:37:17.147Z,6.16
2023-01-30T09:39:43.517Z,6.17
2023-01-30T09:42:36.546Z,6.18
2023-01-30T09:45:39.510Z,6.15
2023-01-30T09:48:24.352Z,6.11
2023-01-30T09:51:12.375Z,6.04
2023-01-30T09:53:50.269Z,6.03
2023-01-30T09:56:16.833Z,6.02
2023-01-30T09:59:01.329Z,6.03
2023-01-30T10:02:01.387Z,6.02
2023-01-30T10:04:33.761Z,6.01
2023-01-30T10:07:21.062Z,6.05
2023-01-30T10:10:14.397Z,6.15
2023-01-30T10:13:03.925Z,6.17
2023-01-30T10:15:54.694Z,6.23
2023-01-30T10:18:55.079Z,6.23
2023-01-30T10:21:24.439Z,6.24
2023-01-30T10:24:09.678Z,6.20
2023-01-30T10:26:36.290Z,6.15
2023-01-30T10:29:12.920Z,6.14
2023-01-30T10:31:47.108Z,6.15
2023-01-30T10:34:22.452Z,6.16
2023-01-30T10:36:55.647Z,6.17
2023-01-30T10:39:54.202Z,6.19
2023-01-30T10:42:29.035Z,6.21
2023-01-30T10:45:06.467Z,6.21
2023-01-30T10:47:49.395Z,6.23
2023-01-30T10:50:25.843Z,6.29
2023-01-30T10:53:10.252Z,6.28
2023-01-30T10:55:48.657Z,6.29
2023-01-30T10:58:35.823Z,6.32
2023-01-30T11:01:36.073Z,6.38
2023-01-30T11:04:04.544Z,6.42
2023-01-30T11:06:33.103Z,6.41
2023-01-30T11:08:59.483Z,6.43
2023-01-30T11:11:47.914Z,6.44
2023-01-30T11:14:14.328Z,6.48
2023-01-30T11:17:02.477Z,6.42
2023-01-30T11:19:34.351Z,6.41
2023-01-30T11:22:03.699Z,6.44
2023-01-30T11:24:41.030Z,6.43
2023-01-30T11:27:11.497Z,6.44
2023-01-30T11:29:40.827Z,6.48
2023-01-30T11:32:26.610Z,6.44
2023-01-30T11:35:08.083Z,6.44
2023-01-30T11:37:37.619Z,6.46
2023-01-30T11:40:23.765Z,6.50
2023-01-30T11:42:52.811Z,6.49
2023-01-30T11:45:22.918Z,6.49
2023-01-30T11:48:05.476Z,6.27
2023-01-30T11:50:43.631Z,6.11
2023-01-30T11:53:26.125Z,6.07
2023-01-30T11:56:05.328Z,6.10
2023-01-30T11:58:35.880Z,6.18
2023-01-30T12:01:03.301Z,6.27
2023-01-30T12:03:30.327Z,6.36
2023-01-30T12:05:58.824Z,6.48
2023-01-30T12:08:43.282Z,6.52
2023-01-30T12:11:45.126Z,6.59
2023-01-30T12:14:17.822Z,6.65
2023-01-30T12:16:53.792Z,6.66
2023-01-30T12:19:42.012Z,6.69
2023-01-30T12:22:24.243Z,6.70
2023-01-30T12:25:03.607Z,6.72
2023-01-30T12:28:03.544Z,6.75
2023-01-30T12:30:34.729Z,6.79
2023-01-30T12:33:04.454Z,6.79
2023-01-30T12:35:59.210Z,6.79
2023-01-30T12:38:45.069Z,6.79
2023-01-30T12:41:22.812Z,6.90
2023-01-30T12:44:04.751Z,6.93
2023-01-30T12:46:55.619Z,6.95
2023-01-30T12:49:36.605Z,6.93
2023-01-30T12:52:38.831Z,6.94
2023-01-30T12:55:31.236Z,7.03
2023-01-30T12:58:32.483Z,7.02
2023-01-30T13:01:16.386Z,7.11
2023-01-30T13:03:55.192Z,7.25
2023-01-30T13:06:40.140Z,7.29
2023-01-30T13:09:12.681Z,7.33
2023-01-30T13:11:56.253Z,7.38
2023-01-30T13:14:32.185Z,7.34
2023-01-30T13:17:35.441Z,7.35
2023-01-30T13:20:31.070Z,7.30
2023-01-30T13:23:06.101Z,7.22
2023-01-30T13:25:34.947Z,7.22
2023-01-30T13:28:14.731Z,7.21
2023-01-30T13:30:43.689Z,7.22
2023-01-30T13:33:39.062Z,7.16
2023-01-30T13:36:20.421Z,7.16
2023-01-30T13:39:10.100Z,7.11
2023-01-30T13:41:42.425Z,6.77
2023-01-30T13:44:21.491Z,6.72
2023-01-30T13:46:51.735Z,6.75
2023-01-30T13:49:25.577Z,6.88
2023-01-30T13:52:33.564Z,7.04
2023-01-30T13:55:10.082Z,7.13
2023-01-30T13:57:50.667Z,7.11
2023-01-30T14:00:20.603Z,7.08
2023-01-30T14:03:07.103Z,6.99
2023-01-30T14:05:58.971Z,7.09
2023-01-30T14:08:29.055Z,7.16
2023-01-30T14:10:57.309Z,7.14
2023-01-30T14:13:25.361Z,7.12
2023-01-30T14:16:04.326Z,7.13
2023-01-30T14:18:36.266Z,7.11
2023-01-30T14:21:14.960Z,7.07
2023-01-30T14:23:53.506Z,6.99
2023-01-30T14:26:40.156Z,7.04
2023-01-30T14:29:08.063Z,7.08
2023-01-30T14:31:49.363Z,7.14
2023-01-30T14:34:43.010Z,7.14
2023-01-30T14:37:46.677Z,7.06
2023-01-30T14:40:22.302Z,6.91
2023-01-30T14:43:16.706Z,6.92
2023-01-30T14:45:53.627Z,6.99
2023-01-30T14:48:44.395Z,7.12
2023-01-30T14:51:28.903Z,7.28
2023-01-30T14:53:58.212Z,7.30
2023-01-30T14:56:58.614Z,7.28
2023-01-30T14:59:39.804Z,7.17
2023-01-30T15:02:12.137Z,7.00
2023-01-30T15:04:52.739Z,6.96
2023-01-30T15:07:37.604Z,6.88
2023-01-30T15:10:06.903Z,6.94
2023-01-30T15:12:48.540Z,7.09
2023-01-30T15:15:31.010Z,7.10
2023-01-30T15:18:11.820Z,7.04
2023-01-30T15:21:02.878Z,6.93
2023-01-30T15:23:54.060Z,6.89
2023-01-30T15:26:46.960Z,6.80
2023-01-30T15:30:00.118Z,6.75
2023-01-30T15:32:29.265Z,6.70
2023-01-30T15:35:15.980Z,6.73
2023-01-30T15:37:51.431Z,6.67
2023-01-30T15:40:20.668Z,6.68
2023-01-30T15:42:54.106Z,6.67
2023-01-30T15:45:58.432Z,6.72
2023-01-30T15:48:33.504Z,6.68
2023-01-30T15:51:00.941Z,6.70
2023-01-30T15:53:41.768Z,6.70
2023-01-30T15:56:10.932Z,6.72
2023-01-30T15:58:42.158Z,6.72
2023-01-30T16:01:10.982Z,6.71
2023-01-30T16:03:42.602Z,6.72
2023-01-30T16:06:41.229Z,6.71
2023-01-30T16:09:22.120Z,6.68
2023-01-30T16:11:48.764Z,6.67
2023-01-30T16:14:17.573Z,6.68
2023-01-30T16:17:06.758Z,6.69
2023-01-30T16:19:35.780Z,6.69
2023-01-30T16:22:05.240Z,6.67
2023-01-30T16:24:37.046Z,6.68
2023-01-30T16:27:07.373Z,6.65
2023-01-30T16:29:51.075Z,6.64
2023-01-30T16:32:19.524Z,6.64
2023-01-30T16:34:45.934Z,6.65
2023-01-30T16:37:18.463Z,6.64
2023-01-30T16:39:48.458Z,6.59
2023-01-30T16:42:28.954Z,6.62
2023-01-30T16:45:13.562Z,6.55
2023-01-30T16:47:40.911Z,6.58
2023-01-30T16:50:21.298Z,6.60
2023-01-30T16:52:51.746Z,6.62
2023-01-30T16:55:24.381Z,6.59
2023-01-30T16:57:54.733Z,6.55
2023-01-30T17:00:36.140Z,6.52
2023-01-30T17:03:05.926Z,6.55
2023-01-30T17:05:40.910Z,6.47
2023-01-30T17:08:45.510Z,6.38
2023-01-30T17:11:29.898Z,6.43
2023-01-30T17:14:20.181Z,6.41
2023-01-30T17:17:04.722Z,6.44
2023-01-30T17:19:31.159Z,6.34
2023-01-30T17:21:58.980Z,6.26
2023-01-30T17:24:26.703Z,6.26
2023-01-30T17:27:00.123Z,6.22
2023-01-30T17:29:41.898Z,6.20
2023-01-30T17:32:15.157Z,6.23
2023-01-30T17:34:41.745Z,6.22
2023-01-30T17:37:16.500Z,6.22
2023-01-30T17:39:42.885Z,6.14
2023-01-30T17:42:10.301Z,6.09
2023-01-30T17:44:36.848Z,6.03
2023-01-30T17:47:03.368Z,6.06
2023-01-30T17:49:29.806Z,6.09
2023-01-30T17:51:59.208Z,6.08
2023-01-30T17:54:26.887Z,6.10
2023-01-30T17:57:00.545Z,6.09
2023-01-30T17:59:27.093Z,6.03
2023-01-30T18:01:53.725Z,5.96
2023-01-30T18:04:20.722Z,5.90
2023-01-30T18:06:50.472Z,5.90
2023-01-30T18:09:20.311Z,5.95
2023-01-30T18:11:47.829Z,5.92
2023-01-30T18:14:14.493Z,5.80
2023-01-30T18:16:41.333Z,5.85
2023-01-30T18:19:12.167Z,5.84
2023-01-30T18:21:39.964Z,5.89
2023-01-30T18:24:07.391Z,5.92
2023-01-30T18:26:34.707Z,5.84
2023-01-30T18:29:01.444Z,5.81
2023-01-30T18:31:32.119Z,5.84
2023-01-30T18:33:58.744Z,5.79
2023-01-30T18:36:25.332Z,5.76
2023-01-30T18:38:53.406Z,5.65
2023-01-30T18:41:22.996Z,5.67
2023-01-30T18:44:00.335Z,5.64
2023-01-30T18:46:27.576Z,5.50
2023-01-30T18:48:54.972Z,5.49
2023-01-30T18:51:26.535Z,5.33
2023-01-30T18:53:54.220Z,5.33
2023-01-30T18:56:26.124Z,5.33
2023-01-30T18:58:54.544Z,5.25
2023-01-30T19:01:23.697Z,5.18
2023-01-30T19:03:54.478Z,5.23
2023-01-30T19:06:20.991Z,5.16
2023-01-30T19:08:47.541Z,5.16
2023-01-30T19:11:34.556Z,5.14
2023-01-30T19:14:01.648Z,5.15
2023-01-30T19:16:30.441Z,4.94
2023-01-30T19:18:57.132Z,4.99
2023-01-30T19:21:24.790Z,4.88
2023-01-30T19:23:51.344Z,4.88
2023-01-30T19:26:20.244Z,4.76
2023-01-30T19:28:47.378Z,4.62
2023-01-30T19:31:19.961Z,4.55
2023-01-30T19:33:48.294Z,4.54
2023-01-30T19:36:20.815Z,4.54
2023-01-30T19:38:48.399Z,4.50
2023-01-30T19:41:17.607Z,4.33
2023-01-30T19:43:44.188Z,4.34
2023-01-30T19:46:11.980Z,4.31
2023-01-30T19:48:41.093Z,4.24
2023-01-30T19:51:20.893Z,4.15
2023-01-30T19:53:53.484Z,4.16
2023-01-30T19:56:22.123Z,4.13
2023-01-30T19:58:51.971Z,4.16
2023-01-30T20:01:20.450Z,4.15
2023-01-30T20:03:47.240Z,4.16
2023-01-30T20:06:29.247Z,4.03
2023-01-30T20:08:59.789Z,3.99
2023-01-30T20:11:26.681Z,4.11
2023-01-30T20:13:53.589Z,4.02
2023-01-30T20:16:22.402Z,4.05
2023-01-30T20:18:55.594Z,4.05
2023-01-30T20:21:22.975Z,4.05
2023-01-30T20:23:49.950Z,3.92
2023-01-30T20:26:19.982Z,3.97
2023-01-30T20:28:46.477Z,3.94
2023-01-30T20:31:15.847Z,3.95
2023-01-30T20:33:42.760Z,3.91
2023-01-30T20:36:12.312Z,3.89
2023-01-30T20:38:42.007Z,3.77
2023-01-30T20:41:14.899Z,3.76
2023-01-30T20:43:46.650Z,3.76
2023-01-30T20:46:38.713Z,3.75
2023-01-30T20:49:05.624Z,3.78
2023-01-30T20:51:32.885Z,3.81
2023-01-30T20:54:02.673Z,3.74
2023-01-30T20:56:35.090Z,3.71
2023-01-30T20:59:02.774Z,3.67
2023-01-30T21:01:29.716Z,3.71
2023-01-30T21:03:56.662Z,3.60
2023-01-30T21:06:41.333Z,3.61
2023-01-30T21:09:17.696Z,3.60
2023-01-30T21:11:44.397Z,3.61
2023-01-30T21:14:12.710Z,3.59
2023-01-30T21:16:39.583Z,3.54
2023-01-30T21:19:08.337Z,3.51
2023-01-30T21:21:40.935Z,3.47
2023-01-30T21:24:12.184Z,3.47
2023-01-30T21:26:41.653Z,3.50
2023-01-30T21:29:08.867Z,3.55
2023-01-30T21:31:37.446Z,3.48
2023-01-30T21:34:04.908Z,3.45
2023-01-30T21:36:31.852Z,3.49
2023-01-30T21:39:16.826Z,3.46
2023-01-30T21:41:50.795Z,3.38
2023-01-30T21:44:19.187Z,3.47
2023-01-30T21:46:48.919Z,3.48
2023-01-30T21:49:17.063Z,3.43
2023-01-30T21:51:48.208Z,3.37
2023-01-30T21:54:16.712Z,3.37
2023-01-30T21:56:43.697Z,3.31
2023-01-30T21:59:10.333Z,3.33
2023-01-30T22:01:37.810Z,3.31
2023-01-30T22:04:06.545Z,3.20
2023-01-30T22:06:33.041Z,3.23
2023-01-30T22:09:01.235Z,3.03
2023-01-30T22:11:28.749Z,2.98
2023-01-30T22:13:56.521Z,3.04
2023-01-30T22:16:25.534Z,3.11
2023-01-30T22:18:54.571Z,3.17
2023-01-30T22:21:23.134Z,3.18
2023-01-30T22:23:51.579Z,3.18
2023-01-30T22:26:19.784Z,3.29
2023-01-30T22:28:46.962Z,3.25
2023-01-30T22:31:17.715Z,3.22
2023-01-30T22:33:50.481Z,3.07
2023-01-30T22:36:17.680Z,2.96
2023-01-30T22:38:46.291Z,3.02
2023-01-30T22:41:24.632Z,3.05
2023-01-30T22:43:52.709Z,3.05
2023-01-30T22:46:19.964Z,2.98
2023-01-30T22:48:46.889Z,3.00
2023-01-30T22:51:18.503Z,3.02
2023-01-30T22:53:47.481Z,3.01
2023-01-30T22:56:16.444Z,3.06
2023-01-30T22:58:43.588Z,3.06
2023-01-30T23:01:17.795Z,3.02
2023-01-30T23:03:45.286Z,3.09
2023-01-30T23:06:14.238Z,3.10
2023-01-30T23:08:42.672Z,3.14
2023-01-30T23:11:13.797Z,3.14
2023-01-30T23:13:42.246Z,3.08
2023-01-30T23:16:09.144Z,3.08
2023-01-30T23:18:54.435Z,3.12
2023-01-30T23:21:24.642Z,3.07
2023-01-30T23:23:53.356Z,3.11
2023-01-30T23:26:21.004Z,3.06
2023-01-30T23:28:47.573Z,3.03
2023-01-30T23:31:17.939Z,2.94
2023-01-30T23:33:45.170Z,3.02
2023-01-30T23:36:13.400Z,2.98
2023-01-30T23:38:40.230Z,3.05
2023-01-30T23:41:14.849Z,2.96
2023-01-30T23:43:43.640Z,2.96
2023-01-30T23:46:19.050Z,2.97
2023-01-30T23:48:47.322Z,2.95
2023-01-30T23:51:16.404Z,3.01
2023-01-30T23:53:43.453Z,2.95
2023-01-30T23:56:10.671Z,2.93
2023-01-30T23:58:37.782Z,2.92
